sensor_id;sensor_type;location;lat;lon;timestamp;pressure;altitude;pressure_sealevel;temperature;humidity
79463;BME280;68931;47.286;18.756;2023-05-07T00:00:21;100687.16;;;12.90;92.72
79463;BME280;68931;47.286;18.756;2023-05-07T00:00:52;100666.22;;;12.74;92.80
79463;BME280;68931;47.286;18.756;2023-05-07T00:01:25;100651.66;;;12.68;92.95
79463;BME280;68931;47.286;18.756;2023-05-07T00:01:56;100677.84;;;12.84;92.93
79463;BME280;68931;47.286;18.756;2023-05-07T00:02:27;100678.69;;;12.85;92.85
79463;BME280;68931;47.286;18.756;2023-05-07T00:03:01;100682.38;;;12.82;92.34
79463;BME280;68931;47.286;18.756;2023-05-07T00:03:32;100678.34;;;12.76;92.40
79463;BME280;68931;47.286;18.756;2023-05-07T00:04:03;100689.53;;;12.80;92.22
79463;BME280;68931;47.286;18.756;2023-05-07T00:04:34;100698.09;;;12.84;92.40
79463;BME280;68931;47.286;18.756;2023-05-07T00:05:08;100688.28;;;12.86;92.33
79463;BME280;68931;47.286;18.756;2023-05-07T00:05:41;100678.69;;;12.85;92.36
79463;BME280;68931;47.286;18.756;2023-05-07T00:06:12;100679.84;;;12.80;91.97
79463;BME280;68931;47.286;18.756;2023-05-07T00:06:43;100691.13;;;12.82;92.07
79463;BME280;68931;47.286;18.756;2023-05-07T00:07:14;100684.06;;;12.83;92.31
79463;BME280;68931;47.286;18.756;2023-05-07T00:07:45;100685.88;;;12.82;92.98
79463;BME280;68931;47.286;18.756;2023-05-07T00:08:16;100678.91;;;12.81;92.53
79463;BME280;68931;47.286;18.756;2023-05-07T00:08:49;100667.44;;;12.68;93.04
79463;BME280;68931;47.286;18.756;2023-05-07T00:09:20;100685.09;;;12.80;92.64
79463;BME280;68931;47.286;18.756;2023-05-07T00:09:50;100680.41;;;12.71;92.26
79463;BME280;68931;47.286;18.756;2023-05-07T00:10:21;100695.63;;;12.80;92.09
79463;BME280;68931;47.286;18.756;2023-05-07T00:10:52;100687.28;;;12.74;92.32
79463;BME280;68931;47.286;18.756;2023-05-07T00:11:25;100688.97;;;12.75;92.19
79463;BME280;68931;47.286;18.756;2023-05-07T00:11:56;100684.75;;;12.72;92.57
79463;BME280;68931;47.286;18.756;2023-05-07T00:12:27;100692.44;;;12.75;92.22
79463;BME280;68931;47.286;18.756;2023-05-07T00:12:57;100663.50;;;12.61;92.42
79463;BME280;68931;47.286;18.756;2023-05-07T00:13:28;100684.75;;;12.72;92.15
79463;BME280;68931;47.286;18.756;2023-05-07T00:14:01;100689.06;;;12.73;92.27
79463;BME280;68931;47.286;18.756;2023-05-07T00:14:32;100669.13;;;12.69;92.19
79463;BME280;68931;47.286;18.756;2023-05-07T00:15:03;100678.91;;;12.67;92.38
79463;BME280;68931;47.286;18.756;2023-05-07T00:15:40;100692.75;;;12.71;92.65
79463;BME280;68931;47.286;18.756;2023-05-07T00:16:10;100684.09;;;12.69;92.33
79463;BME280;68931;47.286;18.756;2023-05-07T00:16:41;100688.22;;;12.73;92.39
79463;BME280;68931;47.286;18.756;2023-05-07T00:17:14;100680.59;;;12.68;92.01
79463;BME280;68931;47.286;18.756;2023-05-07T00:17:45;100690.00;;;12.72;92.31
79463;BME280;68931;47.286;18.756;2023-05-07T00:18:16;100696.97;;;12.73;92.37
79463;BME280;68931;47.286;18.756;2023-05-07T00:18:46;100665.41;;;12.59;92.47
79463;BME280;68931;47.286;18.756;2023-05-07T00:19:17;100695.19;;;12.74;92.67
79463;BME280;68931;47.286;18.756;2023-05-07T00:19:48;100693.41;;;12.74;92.16
79463;BME280;68931;47.286;18.756;2023-05-07T00:20:26;100686.63;;;12.70;92.48
79463;BME280;68931;47.286;18.756;2023-05-07T00:20:57;100679.75;;;12.68;92.29
79463;BME280;68931;47.286;18.756;2023-05-07T00:21:30;100695.28;;;12.72;92.56
79463;BME280;68931;47.286;18.756;2023-05-07T00:22:00;100684.09;;;12.69;92.01
79463;BME280;68931;47.286;18.756;2023-05-07T00:22:31;100689.06;;;12.73;91.99
79463;BME280;68931;47.286;18.756;2023-05-07T00:23:02;100666.34;;;12.58;92.28
79463;BME280;68931;47.286;18.756;2023-05-07T00:23:33;100694.44;;;12.72;92.29
79463;BME280;68931;47.286;18.756;2023-05-07T00:24:06;100690.94;;;12.71;92.03
79463;BME280;68931;47.286;18.756;2023-05-07T00:24:37;100677.53;;;12.62;91.95
79463;BME280;68931;47.286;18.756;2023-05-07T00:25:08;100689.44;;;12.67;92.11
79463;BME280;68931;47.286;18.756;2023-05-07T00:25:39;100683.81;;;12.59;91.73
79463;BME280;68931;47.286;18.756;2023-05-07T00:26:10;100695.84;;;12.63;91.52
79463;BME280;68931;47.286;18.756;2023-05-07T00:26:40;100683.72;;;12.61;91.47
79463;BME280;68931;47.286;18.756;2023-05-07T00:27:11;100682.97;;;12.59;91.56
79463;BME280;68931;47.286;18.756;2023-05-07T00:27:42;100678.28;;;12.50;91.16
79463;BME280;68931;47.286;18.756;2023-05-07T00:28:12;100688.63;;;12.53;91.71
79463;BME280;68931;47.286;18.756;2023-05-07T00:28:46;100684.59;;;12.47;91.56
79463;BME280;68931;47.286;18.756;2023-05-07T00:29:19;100684.03;;;12.42;91.96
79463;BME280;68931;47.286;18.756;2023-05-07T00:29:50;100688.56;;;12.40;92.14
79463;BME280;68931;47.286;18.756;2023-05-07T00:30:20;100678.41;;;12.34;92.39
79463;BME280;68931;47.286;18.756;2023-05-07T00:30:51;100691.38;;;12.37;92.31
79463;BME280;68931;47.286;18.756;2023-05-07T00:31:23;100677.00;;;12.28;91.91
79463;BME280;68931;47.286;18.756;2023-05-07T00:31:56;100680.19;;;12.33;91.29
79463;BME280;68931;47.286;18.756;2023-05-07T00:32:27;100688.66;;;12.38;91.37
79463;BME280;68931;47.286;18.756;2023-05-07T00:32:57;100681.78;;;12.36;91.91
79463;BME280;68931;47.286;18.756;2023-05-07T00:33:28;100690.22;;;12.41;91.89
79463;BME280;68931;47.286;18.756;2023-05-07T00:33:59;100695.50;;;12.41;92.27
79463;BME280;68931;47.286;18.756;2023-05-07T00:34:30;100684.69;;;12.31;92.63
79463;BME280;68931;47.286;18.756;2023-05-07T00:35:00;100695.59;;;12.39;92.34
79463;BME280;68931;47.286;18.756;2023-05-07T00:35:31;100695.88;;;12.35;92.16
79463;BME280;68931;47.286;18.756;2023-05-07T00:36:02;100685.34;;;12.35;92.04
79463;BME280;68931;47.286;18.756;2023-05-07T00:36:38;100689.75;;;12.34;92.34
79463;BME280;68931;47.286;18.756;2023-05-07T00:37:09;100695.88;;;12.35;92.19
79463;BME280;68931;47.286;18.756;2023-05-07T00:37:43;100697.75;;;12.33;91.77
79463;BME280;68931;47.286;18.756;2023-05-07T00:38:20;100690.25;;;12.27;92.67
79463;BME280;68931;47.286;18.756;2023-05-07T00:38:50;100698.88;;;12.29;92.95
79463;BME280;68931;47.286;18.756;2023-05-07T00:39:21;100685.16;;;12.24;92.54
79463;BME280;68931;47.286;18.756;2023-05-07T00:39:51;100692.97;;;12.25;92.56
79463;BME280;68931;47.286;18.756;2023-05-07T00:40:22;100696.44;;;12.26;92.62
79463;BME280;68931;47.286;18.756;2023-05-07T00:40:53;100699.16;;;12.24;92.28
79463;BME280;68931;47.286;18.756;2023-05-07T00:41:24;100696.44;;;12.26;92.42
79463;BME280;68931;47.286;18.756;2023-05-07T00:41:55;100706.97;;;12.26;92.37
79463;BME280;68931;47.286;18.756;2023-05-07T00:42:25;100695.81;;;12.22;92.31
79463;BME280;68931;47.286;18.756;2023-05-07T00:42:59;100692.31;;;12.22;92.09
79463;BME280;68931;47.286;18.756;2023-05-07T00:43:30;100698.31;;;12.24;91.93
79463;BME280;68931;47.286;18.756;2023-05-07T00:44:01;100696.63;;;12.23;91.28
79463;BME280;68931;47.286;18.756;2023-05-07T00:44:32;100698.50;;;12.21;91.71
79463;BME280;68931;47.286;18.756;2023-05-07T00:45:03;100695.22;;;12.17;91.66
79463;BME280;68931;47.286;18.756;2023-05-07T00:45:34;100695.31;;;12.16;91.99
79463;BME280;68931;47.286;18.756;2023-05-07T00:46:05;100707.59;;;12.15;91.98
79463;BME280;68931;47.286;18.756;2023-05-07T00:46:35;100679.63;;;12.00;91.95
79463;BME280;68931;47.286;18.756;2023-05-07T00:47:06;100700.00;;;12.11;92.25
79463;BME280;68931;47.286;18.756;2023-05-07T00:47:37;100696.91;;;12.04;91.91
79463;BME280;68931;47.286;18.756;2023-05-07T00:48:08;100704.13;;;12.00;91.91
79463;BME280;68931;47.286;18.756;2023-05-07T00:48:42;100677.25;;;11.81;92.21
79463;BME280;68931;47.286;18.756;2023-05-07T00:49:13;100695.69;;;11.95;92.57
79463;BME280;68931;47.286;18.756;2023-05-07T00:49:44;100705.91;;;12.00;92.29
79463;BME280;68931;47.286;18.756;2023-05-07T00:50:16;100707.69;;;11.99;92.44
79463;BME280;68931;47.286;18.756;2023-05-07T00:50:47;100698.03;;;12.00;92.00
79463;BME280;68931;47.286;18.756;2023-05-07T00:51:18;100698.88;;;12.00;92.03
79463;BME280;68931;47.286;18.756;2023-05-07T00:51:49;100700.66;;;12.00;91.82
79463;BME280;68931;47.286;18.756;2023-05-07T00:52:25;100707.69;;;11.99;92.14
79463;BME280;68931;47.286;18.756;2023-05-07T00:52:58;100701.78;;;11.96;91.98
79463;BME280;68931;47.286;18.756;2023-05-07T00:53:30;100713.97;;;11.97;92.80
79463;BME280;68931;47.286;18.756;2023-05-07T00:54:02;100710.50;;;11.96;92.07
79463;BME280;68931;47.286;18.756;2023-05-07T00:54:34;100701.28;;;11.89;92.36
79463;BME280;68931;47.286;18.756;2023-05-07T00:55:06;100703.75;;;11.92;92.12
79463;BME280;68931;47.286;18.756;2023-05-07T00:55:38;100702.91;;;11.92;91.87
79463;BME280;68931;47.286;18.756;2023-05-07T00:56:09;100702.97;;;11.90;92.15
79463;BME280;68931;47.286;18.756;2023-05-07T00:56:40;100696.78;;;11.91;92.36
79463;BME280;68931;47.286;18.756;2023-05-07T00:57:11;100701.38;;;11.88;92.12
79463;BME280;68931;47.286;18.756;2023-05-07T00:57:42;100706.75;;;11.86;92.45
79463;BME280;68931;47.286;18.756;2023-05-07T00:58:12;100706.63;;;11.88;92.70
79463;BME280;68931;47.286;18.756;2023-05-07T00:58:43;100707.69;;;11.85;92.49
79463;BME280;68931;47.286;18.756;2023-05-07T00:59:14;100709.72;;;11.80;92.71
79463;BME280;68931;47.286;18.756;2023-05-07T00:59:45;100707.94;;;11.81;92.48
79463;BME280;68931;47.286;18.756;2023-05-07T01:00:16;100710.47;;;11.82;92.42
79463;BME280;68931;47.286;18.756;2023-05-07T01:00:47;100704.28;;;11.83;92.45
79463;BME280;68931;47.286;18.756;2023-05-07T01:01:18;100705.22;;;11.82;92.52
79463;BME280;68931;47.286;18.756;2023-05-07T01:01:49;100710.06;;;11.74;91.69
79463;BME280;68931;47.286;18.756;2023-05-07T01:02:19;100698.00;;;11.70;91.59
79463;BME280;68931;47.286;18.756;2023-05-07T01:02:50;100704.03;;;11.72;92.01
79463;BME280;68931;47.286;18.756;2023-05-07T01:03:21;100696.22;;;11.70;92.62
79463;BME280;68931;47.286;18.756;2023-05-07T01:03:52;100703.91;;;11.75;92.64
79463;BME280;68931;47.286;18.756;2023-05-07T01:04:23;100703.03;;;11.75;92.08
79463;BME280;68931;47.286;18.756;2023-05-07T01:04:55;100704.03;;;11.72;91.93
79463;BME280;68931;47.286;18.756;2023-05-07T01:05:28;100712.84;;;11.71;91.22
79463;BME280;68931;47.286;18.756;2023-05-07T01:06:00;100700.00;;;11.66;91.01
79463;BME280;68931;47.286;18.756;2023-05-07T01:06:33;100687.41;;;11.57;91.18
79463;BME280;68931;47.286;18.756;2023-05-07T01:07:05;100700.09;;;11.65;91.42
79463;BME280;68931;47.286;18.756;2023-05-07T01:07:37;100706.19;;;11.65;91.65
79463;BME280;68931;47.286;18.756;2023-05-07T01:08:09;100713.22;;;11.65;92.37
79463;BME280;68931;47.286;18.756;2023-05-07T01:08:41;100698.56;;;11.61;92.46
79463;BME280;68931;47.286;18.756;2023-05-07T01:09:12;100706.19;;;11.65;92.52
79463;BME280;68931;47.286;18.756;2023-05-07T01:09:43;100715.84;;;11.65;92.45
79463;BME280;68931;47.286;18.756;2023-05-07T01:10:15;100703.00;;;11.60;92.83
79463;BME280;68931;47.286;18.756;2023-05-07T01:10:46;100719.41;;;11.64;92.89
79463;BME280;68931;47.286;18.756;2023-05-07T01:11:17;100714.06;;;11.65;92.25
79463;BME280;68931;47.286;18.756;2023-05-07T01:11:50;100708.91;;;11.64;92.85
79463;BME280;68931;47.286;18.756;2023-05-07T01:12:23;100710.59;;;11.65;92.90
79463;BME280;68931;47.286;18.756;2023-05-07T01:12:54;100707.28;;;11.61;92.60
79463;BME280;68931;47.286;18.756;2023-05-07T01:13:25;100709.81;;;11.63;92.27
79463;BME280;68931;47.286;18.756;2023-05-07T01:13:59;100712.66;;;11.60;92.40
79463;BME280;68931;47.286;18.756;2023-05-07T01:14:30;100714.44;;;11.59;92.32
79463;BME280;68931;47.286;18.756;2023-05-07T01:15:05;100713.59;;;11.59;92.74
79463;BME280;68931;47.286;18.756;2023-05-07T01:15:36;100707.09;;;11.50;93.05
79463;BME280;68931;47.286;18.756;2023-05-07T01:16:09;100718.94;;;11.57;93.17
79463;BME280;68931;47.286;18.756;2023-05-07T01:16:40;100693.63;;;11.41;92.78
79463;BME280;68931;47.286;18.756;2023-05-07T01:17:12;100713.91;;;11.53;92.40
79463;BME280;68931;47.286;18.756;2023-05-07T01:17:43;100714.59;;;11.56;92.79
79463;BME280;68931;47.286;18.756;2023-05-07T01:18:14;100688.53;;;11.38;92.56
79463;BME280;68931;47.286;18.756;2023-05-07T01:18:45;100717.22;;;11.56;92.51
79463;BME280;68931;47.286;18.756;2023-05-07T01:19:19;100717.41;;;11.53;92.36
79463;BME280;68931;47.286;18.756;2023-05-07T01:19:50;100714.78;;;11.53;92.02
79463;BME280;68931;47.286;18.756;2023-05-07T01:20:21;100716.75;;;11.50;91.65
79463;BME280;68931;47.286;18.756;2023-05-07T01:20:55;100699.81;;;11.40;92.46
79463;BME280;68931;47.286;18.756;2023-05-07T01:21:35;100712.34;;;11.50;91.80
79463;BME280;68931;47.286;18.756;2023-05-07T01:22:09;100708.19;;;11.46;92.06
79463;BME280;68931;47.286;18.756;2023-05-07T01:22:42;100688.22;;;11.28;91.81
79463;BME280;68931;47.286;18.756;2023-05-07T01:23:15;100704.22;;;11.39;91.40
79463;BME280;68931;47.286;18.756;2023-05-07T01:23:47;100712.88;;;11.41;91.91
79463;BME280;68931;47.286;18.756;2023-05-07T01:24:18;100708.63;;;11.39;91.04
79463;BME280;68931;47.286;18.756;2023-05-07T01:24:49;100709.56;;;11.38;91.55
79463;BME280;68931;47.286;18.756;2023-05-07T01:25:20;100714.66;;;11.41;91.76
79463;BME280;68931;47.286;18.756;2023-05-07T01:25:52;100710.41;;;11.38;91.80
79463;BME280;68931;47.286;18.756;2023-05-07T01:26:23;100707.88;;;11.37;91.03
79463;BME280;68931;47.286;18.756;2023-05-07T01:26:54;100686.63;;;11.25;91.57
79463;BME280;68931;47.286;18.756;2023-05-07T01:27:25;100710.50;;;11.37;91.94
79463;BME280;68931;47.286;18.756;2023-05-07T01:27:56;100705.22;;;11.37;92.06
79463;BME280;68931;47.286;18.756;2023-05-07T01:28:27;100706.28;;;11.34;91.99
79463;BME280;68931;47.286;18.756;2023-05-07T01:28:57;100695.09;;;11.30;91.62
79463;BME280;68931;47.286;18.756;2023-05-07T01:29:29;100707.88;;;11.37;92.68
79463;BME280;68931;47.286;18.756;2023-05-07T01:29:59;100703.66;;;11.34;92.21
79463;BME280;68931;47.286;18.756;2023-05-07T01:30:30;100701.09;;;11.32;92.63
79463;BME280;68931;47.286;18.756;2023-05-07T01:31:04;100676.47;;;11.19;92.83
79463;BME280;68931;47.286;18.756;2023-05-07T01:31:37;100702.03;;;11.31;92.28
79463;BME280;68931;47.286;18.756;2023-05-07T01:32:10;100705.31;;;11.35;92.80
79463;BME280;68931;47.286;18.756;2023-05-07T01:32:49;100707.09;;;11.35;92.20
79463;BME280;68931;47.286;18.756;2023-05-07T01:33:21;100696.19;;;11.26;92.39
79463;BME280;68931;47.286;18.756;2023-05-07T01:33:53;100703.91;;;11.29;92.15
79463;BME280;68931;47.286;18.756;2023-05-07T01:34:26;100686.13;;;11.19;92.94
79463;BME280;68931;47.286;18.756;2023-05-07T01:34:58;100707.28;;;11.31;92.88
79463;BME280;68931;47.286;18.756;2023-05-07T01:35:38;100711.69;;;11.31;92.33
79463;BME280;68931;47.286;18.756;2023-05-07T01:36:11;100712.72;;;11.28;92.80
79463;BME280;68931;47.286;18.756;2023-05-07T01:36:44;100711.09;;;11.26;92.13
79463;BME280;68931;47.286;18.756;2023-05-07T01:37:16;100713.63;;;11.27;92.41
79463;BME280;68931;47.286;18.756;2023-05-07T01:37:48;100705.75;;;11.27;92.53
79463;BME280;68931;47.286;18.756;2023-05-07T01:38:22;100697.66;;;11.16;92.09
79463;BME280;68931;47.286;18.756;2023-05-07T01:38:53;100714.56;;;11.26;92.00
79463;BME280;68931;47.286;18.756;2023-05-07T01:39:29;100716.47;;;11.24;92.50
79463;BME280;68931;47.286;18.756;2023-05-07T01:40:01;100712.97;;;11.24;91.56
79463;BME280;68931;47.286;18.756;2023-05-07T01:40:33;100707.97;;;11.19;92.37
79463;BME280;68931;47.286;18.756;2023-05-07T01:41:05;100706.03;;;11.23;92.37
79463;BME280;68931;47.286;18.756;2023-05-07T01:41:37;100707.81;;;11.22;91.58
79463;BME280;68931;47.286;18.756;2023-05-07T01:42:07;100709.66;;;11.20;91.98
79463;BME280;68931;47.286;18.756;2023-05-07T01:42:39;100701.13;;;11.17;92.17
79463;BME280;68931;47.286;18.756;2023-05-07T01:43:10;100704.41;;;11.20;91.81
79463;BME280;68931;47.286;18.756;2023-05-07T01:43:42;100695.13;;;11.15;92.00
79463;BME280;68931;47.286;18.756;2023-05-07T01:44:16;100712.47;;;11.17;92.35
79463;BME280;68931;47.286;18.756;2023-05-07T01:44:47;100703.66;;;11.18;92.09
79463;BME280;68931;47.286;18.756;2023-05-07T01:45:18;100679.28;;;11.01;91.62
79463;BME280;68931;47.286;18.756;2023-05-07T01:45:50;100700.28;;;11.16;92.01
79463;BME280;68931;47.286;18.756;2023-05-07T01:46:26;100693.59;;;11.11;91.64
79463;BME280;68931;47.286;18.756;2023-05-07T01:46:57;100701.22;;;11.15;91.80
79463;BME280;68931;47.286;18.756;2023-05-07T01:47:29;100701.22;;;11.15;92.08
79463;BME280;68931;47.286;18.756;2023-05-07T01:48:02;100701.31;;;11.14;92.32
79463;BME280;68931;47.286;18.756;2023-05-07T01:48:33;100697.66;;;11.16;92.94
79463;BME280;68931;47.286;18.756;2023-05-07T01:49:04;100695.78;;;11.18;93.13
79463;BME280;68931;47.286;18.756;2023-05-07T01:49:35;100691.44;;;11.17;92.76
79463;BME280;68931;47.286;18.756;2023-05-07T01:50:07;100687.91;;;11.18;93.04
79463;BME280;68931;47.286;18.756;2023-05-07T01:50:43;100693.84;;;11.22;93.29
79463;BME280;68931;47.286;18.756;2023-05-07T01:51:14;100669.19;;;11.09;93.09
79463;BME280;68931;47.286;18.756;2023-05-07T01:51:54;100683.94;;;11.11;93.20
79463;BME280;68931;47.286;18.756;2023-05-07T01:52:27;100682.91;;;11.14;93.67
79463;BME280;68931;47.286;18.756;2023-05-07T01:52:58;100689.69;;;11.18;93.31
79463;BME280;68931;47.286;18.756;2023-05-07T01:53:35;100695.88;;;11.17;93.60
79463;BME280;68931;47.286;18.756;2023-05-07T01:54:06;100690.63;;;11.17;93.18
79463;BME280;68931;47.286;18.756;2023-05-07T01:54:38;100682.06;;;11.13;93.50
79463;BME280;68931;47.286;18.756;2023-05-07T01:55:12;100679.81;;;11.07;93.32
79463;BME280;68931;47.286;18.756;2023-05-07T01:55:43;100700.19;;;11.18;93.42
79463;BME280;68931;47.286;18.756;2023-05-07T01:56:13;100696.97;;;11.13;93.82
79463;BME280;68931;47.286;18.756;2023-05-07T01:56:44;100695.03;;;11.16;93.74
79463;BME280;68931;47.286;18.756;2023-05-07T01:57:15;100699.34;;;11.17;93.59
79463;BME280;68931;47.286;18.756;2023-05-07T01:57:45;100695.13;;;11.15;93.53
79463;BME280;68931;47.286;18.756;2023-05-07T01:58:16;100695.97;;;11.15;93.59
79463;BME280;68931;47.286;18.756;2023-05-07T01:58:50;100661.84;;;11.00;93.30
79463;BME280;68931;47.286;18.756;2023-05-07T01:59:22;100692.56;;;11.13;93.25
79463;BME280;68931;47.286;18.756;2023-05-07T01:59:52;100699.34;;;11.17;93.66
79463;BME280;68931;47.286;18.756;2023-05-07T02:00:23;100700.28;;;11.16;93.67
79463;BME280;68931;47.286;18.756;2023-05-07T02:00:57;100679.19;;;11.02;93.80
79463;BME280;68931;47.286;18.756;2023-05-07T02:01:30;100697.81;;;11.13;94.06
79463;BME280;68931;47.286;18.756;2023-05-07T02:02:01;100699.44;;;11.16;93.66
79463;BME280;68931;47.286;18.756;2023-05-07T02:02:32;100686.06;;;11.05;93.77
79463;BME280;68931;47.286;18.756;2023-05-07T02:03:03;100696.13;;;11.12;93.59
79463;BME280;68931;47.286;18.756;2023-05-07T02:03:36;100692.94;;;11.07;93.44
79463;BME280;68931;47.286;18.756;2023-05-07T02:04:07;100694.44;;;11.11;93.75
79463;BME280;68931;47.286;18.756;2023-05-07T02:04:37;100698.75;;;11.12;92.83
79463;BME280;68931;47.286;18.756;2023-05-07T02:05:08;100694.44;;;11.11;92.95
79463;BME280;68931;47.286;18.756;2023-05-07T02:05:39;100694.19;;;11.16;93.40
79463;BME280;68931;47.286;18.756;2023-05-07T02:06:10;100694.19;;;11.16;93.05
79463;BME280;68931;47.286;18.756;2023-05-07T02:06:40;100690.88;;;11.12;93.59
79463;BME280;68931;47.286;18.756;2023-05-07T02:07:14;100669.53;;;11.03;93.40
79463;BME280;68931;47.286;18.756;2023-05-07T02:07:48;100691.72;;;11.13;93.55
79463;BME280;68931;47.286;18.756;2023-05-07T02:08:19;100666.34;;;10.98;93.24
79463;BME280;68931;47.286;18.756;2023-05-07T02:08:49;100666.50;;;10.94;92.86
79463;BME280;68931;47.286;18.756;2023-05-07T02:09:23;100689.34;;;11.08;92.98
79463;BME280;68931;47.286;18.756;2023-05-07T02:09:54;100680.66;;;11.08;93.38
79463;BME280;68931;47.286;18.756;2023-05-07T02:10:28;100683.28;;;11.08;93.67
79463;BME280;68931;47.286;18.756;2023-05-07T02:10:58;100683.00;;;11.12;93.32
79463;BME280;68931;47.286;18.756;2023-05-07T02:11:29;100687.41;;;11.12;93.42
79463;BME280;68931;47.286;18.756;2023-05-07T02:12:03;100672.00;;;11.06;93.95
79463;BME280;68931;47.286;18.756;2023-05-07T02:12:34;100683.84;;;11.13;93.75
79463;BME280;68931;47.286;18.756;2023-05-07T02:13:05;100676.13;;;11.10;93.33
79463;BME280;68931;47.286;18.756;2023-05-07T02:13:36;100677.19;;;11.07;93.77
79463;BME280;68931;47.286;18.756;2023-05-07T02:14:07;100678.75;;;11.10;93.74
79463;BME280;68931;47.286;18.756;2023-05-07T02:14:37;100661.03;;;10.99;93.34
79463;BME280;68931;47.286;18.756;2023-05-07T02:15:08;100686.72;;;11.08;93.69
79463;BME280;68931;47.286;18.756;2023-05-07T02:15:42;100683.28;;;11.08;93.35
79463;BME280;68931;47.286;18.756;2023-05-07T02:16:13;100684.22;;;11.07;92.85
79463;BME280;68931;47.286;18.756;2023-05-07T02:16:44;100662.19;;;10.93;92.76
79463;BME280;68931;47.286;18.756;2023-05-07T02:17:15;100682.44;;;11.07;92.73
79463;BME280;68931;47.286;18.756;2023-05-07T02:18:30;100683.44;;;11.05;93.39
79463;BME280;68931;47.286;18.756;2023-05-07T02:19:02;100678.34;;;11.02;93.11
79463;BME280;68931;47.286;18.756;2023-05-07T02:19:32;100684.22;;;11.07;93.41
79463;BME280;68931;47.286;18.756;2023-05-07T02:20:03;100690.13;;;11.10;93.75
79463;BME280;68931;47.286;18.756;2023-05-07T02:20:34;100685.06;;;11.07;93.38
79463;BME280;68931;47.286;18.756;2023-05-07T02:21:05;100698.00;;;11.10;93.72
79463;BME280;68931;47.286;18.756;2023-05-07T02:21:36;100681.47;;;11.08;93.37
79463;BME280;68931;47.286;18.756;2023-05-07T02:22:13;100665.31;;;11.00;92.92
79463;BME280;68931;47.286;18.756;2023-05-07T02:22:44;100686.47;;;11.13;93.73
79463;BME280;68931;47.286;18.756;2023-05-07T02:23:17;100690.53;;;11.18;93.93
79463;BME280;68931;47.286;18.756;2023-05-07T02:23:48;100689.88;;;11.15;93.71
79463;BME280;68931;47.286;18.756;2023-05-07T02:24:19;100665.91;;;11.05;93.29
79463;BME280;68931;47.286;18.756;2023-05-07T02:24:49;100698.31;;;11.20;93.63
79463;BME280;68931;47.286;18.756;2023-05-07T02:25:20;100669.47;;;11.04;93.09
79463;BME280;68931;47.286;18.756;2023-05-07T02:25:51;100692.97;;;11.21;93.15
79463;BME280;68931;47.286;18.756;2023-05-07T02:26:22;100687.72;;;11.21;93.04
79463;BME280;68931;47.286;18.756;2023-05-07T02:26:52;100691.22;;;11.22;93.84
79463;BME280;68931;47.286;18.756;2023-05-07T02:27:23;100684.25;;;11.21;93.69
79463;BME280;68931;47.286;18.756;2023-05-07T02:27:54;100685.88;;;11.23;93.81
79463;BME280;68931;47.286;18.756;2023-05-07T02:28:27;100692.63;;;11.27;93.36
79463;BME280;68931;47.286;18.756;2023-05-07T02:28:58;100662.94;;;11.11;93.92
79463;BME280;68931;47.286;18.756;2023-05-07T02:29:29;100666.81;;;11.20;93.55
79463;BME280;68931;47.286;18.756;2023-05-07T02:30:00;100678.47;;;11.30;93.49
79463;BME280;68931;47.286;18.756;2023-05-07T02:30:31;100682.72;;;11.32;94.09
79463;BME280;68931;47.286;18.756;2023-05-07T02:31:03;100686.09;;;11.35;93.31
79463;BME280;68931;47.286;18.756;2023-05-07T02:31:33;100676.69;;;11.30;93.48
79463;BME280;68931;47.286;18.756;2023-05-07T02:32:07;100681.03;;;11.31;93.70
79463;BME280;68931;47.286;18.756;2023-05-07T02:32:38;100674.06;;;11.30;93.36
79463;BME280;68931;47.286;18.756;2023-05-07T02:33:08;100657.31;;;11.17;93.39
79463;BME280;68931;47.286;18.756;2023-05-07T02:33:39;100658.16;;;11.18;93.38
79463;BME280;68931;47.286;18.756;2023-05-07T02:34:10;100677.78;;;11.26;93.50
79463;BME280;68931;47.286;18.756;2023-05-07T02:34:59;100678.84;;;11.24;92.81
79463;BME280;68931;47.286;18.756;2023-05-07T02:35:30;100676.28;;;11.22;92.86
79463;BME280;68931;47.286;18.756;2023-05-07T02:36:09;100683.31;;;11.22;92.85
79463;BME280;68931;47.286;18.756;2023-05-07T02:36:40;100673.84;;;11.19;92.88
79463;BME280;68931;47.286;18.756;2023-05-07T02:37:14;100654.28;;;11.09;93.48
79463;BME280;68931;47.286;18.756;2023-05-07T02:37:45;100674.59;;;11.21;93.06
79463;BME280;68931;47.286;18.756;2023-05-07T02:38:15;100678.66;;;11.27;92.91
79463;BME280;68931;47.286;18.756;2023-05-07T02:38:46;100671.03;;;11.22;93.12
79463;BME280;68931;47.286;18.756;2023-05-07T02:39:17;100680.44;;;11.26;92.93
79463;BME280;68931;47.286;18.756;2023-05-07T02:39:47;100676.88;;;11.27;93.78
79463;BME280;68931;47.286;18.756;2023-05-07T02:40:18;100675.94;;;11.28;93.64
79463;BME280;68931;47.286;18.756;2023-05-07T02:40:49;100676.94;;;11.26;93.42
79463;BME280;68931;47.286;18.756;2023-05-07T02:41:20;100679.56;;;11.26;93.60
79463;BME280;68931;47.286;18.756;2023-05-07T02:41:50;100679.41;;;11.29;93.56
79463;BME280;68931;47.286;18.756;2023-05-07T02:42:21;100654.03;;;11.14;93.44
79463;BME280;68931;47.286;18.756;2023-05-07T02:42:52;100653.75;;;11.18;93.05
79463;BME280;68931;47.286;18.756;2023-05-07T02:43:22;100660.53;;;11.22;93.04
79463;BME280;68931;47.286;18.756;2023-05-07T02:43:53;100671.69;;;11.26;93.16
79463;BME280;68931;47.286;18.756;2023-05-07T02:44:24;100664.88;;;11.23;92.98
79463;BME280;68931;47.286;18.756;2023-05-07T02:44:55;100666.81;;;11.20;92.41